Time;durP1;ratioP1;P1;durP2;ratioP2;P2;SDS_P1;SDS_P2;PMS_P1;PMS_P2;Temp;Humidity;BMP_temperature;BMP_pressure;BME280_temperature;BME280_humidity;BME280_pressure;Samples;Min_cycle;Max_cycle;Signal;HPM_P1;HPM_P2
2023/06/09 00:01:37;;;;;;;24.25;13.35;;;;;;;;;;6283282;22;20402;-86
2023/06/09 00:04:03;;;;;;;23.10;12.45;;;;;;;;;;6284025;22;20385;-85
2023/06/09 00:06:30;;;;;;;24.58;13.07;;;;;;;;;;6258440;22;20018;-85
2023/06/09 00:08:59;;;;;;;23.02;12.45;;;;;;;;;;6311044;22;20063;-86
2023/06/09 00:11:26;;;;;;;22.60;11.57;;;;;;;;;;6312083;22;20011;-85
2023/06/09 00:13:53;;;;;;;25.65;12.80;;;;;;;;;;6284139;22;20016;-85
2023/06/09 00:16:19;;;;;;;26.05;12.57;;;;;;;;;;6310912;22;20022;-85
2023/06/09 00:18:45;;;;;;;25.05;13.30;;;;;;;;;;6284865;22;20011;-85
2023/06/09 00:21:15;;;;;;;24.80;14.20;;;;;;;;;;6258340;22;20140;-85
2023/06/09 00:23:44;;;;;;;26.45;11.93;;;;;;;;;;6258096;22;20011;-85
2023/06/09 00:26:10;;;;;;;21.48;11.88;;;;;;;;;;6284851;22;20035;-85
2023/06/09 00:28:36;;;;;;;27.52;11.48;;;;;;;;;;6284238;22;20015;-86
2023/06/09 00:31:02;;;;;;;24.83;11.45;;;;;;;;;;6258044;22;20061;-85
2023/06/09 00:33:28;;;;;;;25.20;12.82;;;;;;;;;;6258055;22;20015;-86
2023/06/09 00:35:54;;;;;;;20.90;13.88;;;;;;;;;;6257150;22;20022;-85
2023/06/09 00:38:20;;;;;;;22.58;11.40;;;;;;;;;;6311003;22;20019;-85
2023/06/09 00:40:47;;;;;;;22.45;11.15;;;;;;;;;;6284053;22;20011;-85
2023/06/09 00:43:13;;;;;;;24.10;12.70;;;;;;;;;;6283543;22;20093;-85
2023/06/09 00:45:40;;;;;;;25.42;14.50;;;;;;;;;;6283837;22;20330;-85
2023/06/09 00:48:06;;;;;;;25.98;13.73;;;;;;;;;;6283493;22;20015;-86
2023/06/09 00:50:32;;;;;;;27.67;12.70;;;;;;;;;;6258097;22;20356;-85
2023/06/09 00:52:58;;;;;;;19.35;10.05;;;;;;;;;;6310562;22;20392;-85
2023/06/09 00:55:25;;;;;;;27.48;12.57;;;;;;;;;;6257133;22;20011;-83
2023/06/09 00:57:55;;;;;;;30.40;12.13;;;;;;;;;;6257469;22;20097;-85
2023/06/09 01:00:24;;;;;;;27.02;11.77;;;;;;;;;;6283419;22;20018;-85
2023/06/09 01:02:52;;;;;;;25.95;14.23;;;;;;;;;;6284457;22;20063;-85
2023/06/09 01:05:18;;;;;;;23.55;14.20;;;;;;;;;;6282879;22;20012;-85
2023/06/09 01:07:54;;;;;;;24.13;11.10;;;;;;;;;;6311260;22;20363;-86
2023/06/09 01:10:41;;;;;;;22.20;12.75;;;;;;;;;;6257022;22;20046;-85
2023/06/09 01:13:19;;;;;;;27.52;15.65;;;;;;;;;;6257652;22;20101;-85
2023/06/09 01:15:47;;;;;;;33.22;15.52;;;;;;;;;;6283958;22;20090;-86
2023/06/09 01:18:15;;;;;;;25.90;16.35;;;;;;;;;;6310544;22;20090;-86
2023/06/09 01:20:45;;;;;;;27.38;14.60;;;;;;;;;;6284179;22;20015;-85
2023/06/09 01:23:20;;;;;;;24.67;14.35;;;;;;;;;;6283227;22;20011;-86
2023/06/09 01:25:50;;;;;;;25.92;14.02;;;;;;;;;;6283206;22;20282;-85
2023/06/09 01:28:18;;;;;;;28.05;12.95;;;;;;;;;;6282032;22;20071;-86
2023/06/09 01:30:46;;;;;;;25.08;14.48;;;;;;;;;;6257582;22;20011;-86
2023/06/09 01:33:15;;;;;;;30.13;14.18;;;;;;;;;;6311704;22;20019;-86
2023/06/09 01:35:42;;;;;;;30.38;14.40;;;;;;;;;;6283644;22;20106;-86
2023/06/09 01:38:08;;;;;;;23.55;13.75;;;;;;;;;;6283216;22;20023;-85
2023/06/09 01:40:34;;;;;;;25.42;13.95;;;;;;;;;;6258671;22;20323;-86
2023/06/09 01:43:04;;;;;;;23.70;12.18;;;;;;;;;;6283664;22;20338;-86
2023/06/09 01:45:30;;;;;;;30.92;16.33;;;;;;;;;;6283434;22;20019;-83
2023/06/09 01:47:57;;;;;;;33.13;16.13;;;;;;;;;;6282637;22;20501;-85
2023/06/09 01:50:32;;;;;;;30.52;15.88;;;;;;;;;;6283241;22;20080;-85
2023/06/09 01:53:02;;;;;;;28.15;15.32;;;;;;;;;;6283641;22;20326;-85
2023/06/09 01:55:30;;;;;;;33.85;16.63;;;;;;;;;;6257830;22;20068;-85
2023/06/09 01:58:00;;;;;;;33.65;17.20;;;;;;;;;;6283133;22;20051;-85
2023/06/09 02:00:27;;;;;;;32.72;16.63;;;;;;;;;;6256538;22;20026;-86
2023/06/09 02:02:56;;;;;;;28.45;17.55;;;;;;;;;;6282965;22;20042;-85
2023/06/09 02:05:22;;;;;;;24.35;16.02;;;;;;;;;;6283372;22;20394;-86
2023/06/09 02:07:49;;;;;;;31.05;17.08;;;;;;;;;;6282709;22;20457;-86
2023/06/09 02:10:16;;;;;;;30.23;17.65;;;;;;;;;;6282119;22;20049;-85
2023/06/09 02:12:42;;;;;;;28.77;17.42;;;;;;;;;;6283241;22;20015;-85
2023/06/09 02:15:08;;;;;;;32.33;18.33;;;;;;;;;;6310512;22;20406;-86
2023/06/09 02:17:34;;;;;;;33.90;18.67;;;;;;;;;;6283180;22;20015;-85
2023/06/09 02:20:00;;;;;;;31.77;16.80;;;;;;;;;;6284109;22;20015;-85
2023/06/09 02:22:26;;;;;;;32.65;16.85;;;;;;;;;;6282288;22;20014;-85
2023/06/09 02:24:52;;;;;;;32.13;17.50;;;;;;;;;;6310500;22;20016;-86
2023/06/09 02:27:18;;;;;;;29.17;16.33;;;;;;;;;;6282535;22;20457;-86
2023/06/09 02:29:44;;;;;;;31.40;17.63;;;;;;;;;;6258513;22;20019;-85
2023/06/09 02:32:10;;;;;;;35.08;17.42;;;;;;;;;;6283324;22;20038;-85
2023/06/09 02:34:37;;;;;;;27.88;16.75;;;;;;;;;;6257278;22;20030;-86
2023/06/09 02:37:07;;;;;;;32.92;15.35;;;;;;;;;;6282403;22;20319;-84
2023/06/09 02:39:36;;;;;;;27.40;16.40;;;;;;;;;;6310127;22;20384;-85
2023/06/09 02:42:02;;;;;;;24.85;17.00;;;;;;;;;;6283104;22;20015;-85
2023/06/09 02:44:32;;;;;;;29.45;16.80;;;;;;;;;;6258599;22;20307;-85
2023/06/09 02:46:59;;;;;;;30.50;15.65;;;;;;;;;;6310887;22;20015;-87
2023/06/09 02:49:25;;;;;;;29.50;16.77;;;;;;;;;;6258592;22;20015;-85
2023/06/09 02:51:51;;;;;;;32.78;17.38;;;;;;;;;;6310431;22;20018;-86
2023/06/09 02:54:18;;;;;;;34.05;17.50;;;;;;;;;;6309945;22;20757;-86
2023/06/09 02:56:44;;;;;;;28.80;18.90;;;;;;;;;;6282054;22;20007;-84
2023/06/09 02:59:10;;;;;;;34.95;17.00;;;;;;;;;;6256831;22;20019;-84
2023/06/09 03:01:36;;;;;;;30.52;17.20;;;;;;;;;;6256459;22;20042;-86
2023/06/09 03:04:06;;;;;;;33.42;17.67;;;;;;;;;;6282630;22;20039;-85
2023/06/09 03:06:36;;;;;;;31.08;17.05;;;;;;;;;;6285708;22;20319;-85
2023/06/09 03:09:03;;;;;;;26.00;17.73;;;;;;;;;;6257554;22;20041;-84
2023/06/09 03:11:32;;;;;;;29.63;16.25;;;;;;;;;;6311653;22;20069;-85
2023/06/09 03:13:58;;;;;;;32.88;16.33;;;;;;;;;;6310874;22;20470;-86
2023/06/09 03:16:24;;;;;;;29.67;17.67;;;;;;;;;;6258974;22;20015;-85
2023/06/09 03:18:50;;;;;;;30.88;17.40;;;;;;;;;;6283982;22;20035;-85
2023/06/09 03:21:16;;;;;;;28.73;16.77;;;;;;;;;;6259311;22;20098;-85
2023/06/09 03:23:42;;;;;;;34.15;16.35;;;;;;;;;;6311879;22;20111;-85
2023/06/09 03:26:09;;;;;;;32.90;16.42;;;;;;;;;;6283745;22;20093;-84
2023/06/09 03:28:35;;;;;;;27.13;16.08;;;;;;;;;;6284450;22;20019;-84
2023/06/09 03:31:01;;;;;;;27.27;16.17;;;;;;;;;;6259052;22;20019;-86
2023/06/09 03:33:27;;;;;;;29.52;15.57;;;;;;;;;;6283672;22;20015;-84
2023/06/09 03:35:53;;;;;;;32.97;15.55;;;;;;;;;;6284186;22;20456;-85
2023/06/09 03:38:19;;;;;;;31.95;18.00;;;;;;;;;;6309696;22;20007;-85
2023/06/09 03:40:45;;;;;;;27.63;16.15;;;;;;;;;;6258770;22;20044;-85
2023/06/09 03:43:11;;;;;;;27.48;16.70;;;;;;;;;;6258136;22;20018;-85
2023/06/09 03:45:37;;;;;;;27.60;16.25;;;;;;;;;;6284378;22;20380;-85
2023/06/09 03:48:05;;;;;;;33.75;16.77;;;;;;;;;;6257807;22;20015;-85
2023/06/09 03:50:31;;;;;;;27.58;16.52;;;;;;;;;;6311042;22;20045;-85
2023/06/09 03:52:57;;;;;;;26.33;16.80;;;;;;;;;;6258427;22;20132;-85
2023/06/09 03:55:24;;;;;;;27.75;15.65;;;;;;;;;;6283649;22;20015;-85
2023/06/09 03:57:51;;;;;;;29.25;16.13;;;;;;;;;;6258219;22;20089;-85
2023/06/09 04:00:17;;;;;;;35.42;16.58;;;;;;;;;;6284782;22;20011;-83
2023/06/09 04:02:44;;;;;;;27.38;17.50;;;;;;;;;;6257928;22;20465;-84
2023/06/09 04:05:10;;;;;;;28.05;16.38;;;;;;;;;;6282758;22;20022;-85
2023/06/09 04:07:36;;;;;;;29.92;16.08;;;;;;;;;;6257613;22;20050;-85
2023/06/09 04:10:05;;;;;;;31.98;16.30;;;;;;;;;;6257764;22;20015;-84
2023/06/09 04:12:31;;;;;;;25.52;16.42;;;;;;;;;;6258060;22;20063;-85
2023/06/09 04:14:59;;;;;;;32.33;17.38;;;;;;;;;;6284462;22;20401;-85
2023/06/09 04:17:25;;;;;;;29.75;13.73;;;;;;;;;;6284461;22;20323;-84
2023/06/09 04:19:54;;;;;;;40.25;16.23;;;;;;;;;;6310174;22;20037;-85
2023/06/09 04:22:21;;;;;;;25.73;13.77;;;;;;;;;;6283453;22;20069;-84
2023/06/09 04:24:47;;;;;;;24.00;13.07;;;;;;;;;;6257315;22;20015;-84
2023/06/09 04:27:15;;;;;;;27.52;14.10;;;;;;;;;;6309716;22;20111;-85
2023/06/09 04:29:41;;;;;;;25.67;14.45;;;;;;;;;;6257360;22;20015;-85
2023/06/09 04:32:11;;;;;;;28.92;13.75;;;;;;;;;;6282987;22;20473;-82
2023/06/09 04:34:40;;;;;;;27.38;13.50;;;;;;;;;;6310770;22;20018;-85
2023/06/09 04:37:08;;;;;;;25.58;13.57;;;;;;;;;;6257007;22;20015;-84
2023/06/09 04:39:35;;;;;;;31.83;14.13;;;;;;;;;;6256794;22;20042;-85
2023/06/09 04:42:03;;;;;;;29.83;13.50;;;;;;;;;;6282178;22;20015;-84
2023/06/09 04:44:29;;;;;;;31.60;14.05;;;;;;;;;;6310962;22;20015;-84
2023/06/09 04:46:55;;;;;;;35.08;14.90;;;;;;;;;;6256739;22;20011;-85
2023/06/09 04:49:23;;;;;;;25.02;13.40;;;;;;;;;;6283028;22;20011;-83
2023/06/09 04:51:49;;;;;;;33.40;14.43;;;;;;;;;;6283686;22;20011;-86
2023/06/09 04:54:28;;;;;;;34.60;14.73;;;;;;;;;;6258119;22;20019;-85
2023/06/09 04:56:57;;;;;;;25.85;13.55;;;;;;;;;;6285379;22;20007;-85
2023/06/09 04:59:28;;;;;;;27.10;14.30;;;;;;;;;;6312645;22;20019;-87
2023/06/09 05:01:55;;;;;;;31.42;15.45;;;;;;;;;;6286131;22;20011;-83
2023/06/09 05:04:21;;;;;;;25.83;15.43;;;;;;;;;;6259029;22;20015;-85
2023/06/09 05:06:47;;;;;;;26.73;14.93;;;;;;;;;;6311084;22;20007;-86
2023/06/09 05:09:13;;;;;;;23.23;15.52;;;;;;;;;;6282671;22;20453;-85
2023/06/09 05:11:39;;;;;;;29.38;16.45;;;;;;;;;;6281736;22;20069;-84
2023/06/09 05:14:05;;;;;;;23.48;17.65;;;;;;;;;;6282419;22;20012;-87
2023/06/09 05:16:33;;;;;;;27.05;23.52;;;;;;;;;;6310874;22;20022;-86
2023/06/09 05:18:59;;;;;;;25.05;18.42;;;;;;;;;;6257228;22;20014;-86
2023/06/09 05:21:25;;;;;;;22.50;10.95;;;;;;;;;;6258148;22;20090;-85
2023/06/09 05:23:52;;;;;;;24.05;11.88;;;;;;;;;;6257812;22;20061;-86
2023/06/09 05:26:18;;;;;;;22.40;10.18;;;;;;;;;;6309639;22;20081;-87
2023/06/09 05:28:45;;;;;;;28.30;11.32;;;;;;;;;;6310230;22;20015;-86
2023/06/09 05:31:14;;;;;;;20.10;13.10;;;;;;;;;;6280738;22;20011;-82
2023/06/09 05:33:40;;;;;;;23.52;19.70;;;;;;;;;;6278199;22;20023;-83
2023/06/09 05:36:08;;;;;;;27.00;22.15;;;;;;;;;;6305444;22;20086;-84
2023/06/09 05:38:33;;;;;;;33.10;20.58;;;;;;;;;;6277942;22;20065;-85
2023/06/09 05:40:59;;;;;;;25.45;22.70;;;;;;;;;;6277569;22;20012;-85
2023/06/09 05:43:26;;;;;;;34.10;25.27;;;;;;;;;;6277936;22;20007;-85
2023/06/09 05:45:53;;;;;;;28.60;21.95;;;;;;;;;;6305202;22;20007;-85
2023/06/09 05:48:19;;;;;;;23.17;20.08;;;;;;;;;;6304866;22;20034;-85
2023/06/09 05:50:48;;;;;;;26.88;23.63;;;;;;;;;;6277720;22;20090;-85
2023/06/09 05:53:16;;;;;;;26.63;19.35;;;;;;;;;;6277614;22;20014;-86
2023/06/09 05:55:44;;;;;;;20.73;15.75;;;;;;;;;;6277484;22;20027;-85
2023/06/09 05:58:11;;;;;;;27.08;19.92;;;;;;;;;;6277355;22;20027;-85
2023/06/09 06:00:37;;;;;;;26.42;18.77;;;;;;;;;;6305150;22;20038;-85
2023/06/09 06:03:06;;;;;;;21.98;16.58;;;;;;;;;;6251322;22;20086;-85
2023/06/09 06:05:35;;;;;;;25.25;17.98;;;;;;;;;;6273079;22;20572;-85
2023/06/09 06:08:01;;;;;;;31.63;28.70;;;;;;;;;;6276654;22;20448;-85
2023/06/09 06:10:27;;;;;;;86.78;80.68;;;;;;;;;;6276437;22;20012;-84
2023/06/09 06:12:54;;;;;;;167.10;156.73;;;;;;;;;;6276279;22;20034;-84
2023/06/09 06:15:20;;;;;;;220.65;206.93;;;;;;;;;;6303418;22;20025;-84
2023/06/09 06:17:46;;;;;;;347.50;325.35;;;;;;;;;;6275016;22;20369;-83
2023/06/09 06:20:13;;;;;;;426.17;397.92;;;;;;;;;;6276204;22;20081;-85
2023/06/09 06:22:41;;;;;;;765.22;703.53;;;;;;;;;;6276973;22;20315;-85
2023/06/09 06:25:07;;;;;;;880.15;803.63;;;;;;;;;;6277234;22;20338;-85
2023/06/09 06:27:33;;;;;;;865.40;790.88;;;;;;;;;;6303441;22;20011;-84
2023/06/09 06:30:00;;;;;;;885.22;808.53;;;;;;;;;;6304222;22;20053;-84
2023/06/09 06:32:26;;;;;;;809.95;743.60;;;;;;;;;;6275637;22;20011;-84
2023/06/09 06:34:52;;;;;;;1060.43;946.60;;;;;;;;;;6276773;22;20346;-84
2023/06/09 06:37:18;;;;;;;1002.40;901.53;;;;;;;;;;6276882;22;20012;-83
2023/06/09 06:39:44;;;;;;;1081.18;957.40;;;;;;;;;;6276524;22;20014;-85
2023/06/09 06:42:10;;;;;;;1353.68;999.90;;;;;;;;;;6303481;22;20030;-82
2023/06/09 06:44:36;;;;;;;1242.72;999.90;;;;;;;;;;6275433;22;20015;-82
2023/06/09 06:47:02;;;;;;;1514.18;999.90;;;;;;;;;;6275839;22;20037;-82
2023/06/09 06:49:28;;;;;;;1339.75;999.90;;;;;;;;;;6276589;22;20396;-82
2023/06/09 06:51:54;;;;;;;1431.93;999.90;;;;;;;;;;6304394;22;20007;-82
2023/06/09 06:54:20;;;;;;;1702.78;999.90;;;;;;;;;;6276653;22;20064;-82
2023/06/09 06:56:46;;;;;;;1933.20;999.90;;;;;;;;;;6276482;22;20031;-82
2023/06/09 06:59:12;;;;;;;1990.40;999.90;;;;;;;;;;6276140;22;20015;-82
2023/06/09 07:01:38;;;;;;;1999.90;999.90;;;;;;;;;;6303791;22;20011;-82
2023/06/09 07:04:05;;;;;;;1985.15;999.90;;;;;;;;;;6251001;22;20011;-82
2023/06/09 07:06:32;;;;;;;1999.90;999.90;;;;;;;;;;6304362;22;20012;-82
2023/06/09 07:08:58;;;;;;;1999.90;999.90;;;;;;;;;;6276525;22;20015;-82
2023/06/09 07:11:24;;;;;;;1999.90;999.90;;;;;;;;;;6304571;22;20041;-82
2023/06/09 07:13:51;;;;;;;1999.90;999.90;;;;;;;;;;6304335;22;20073;-82
2023/06/09 07:16:18;;;;;;;1999.90;999.90;;;;;;;;;;6276006;22;20015;-82
2023/06/09 07:18:44;;;;;;;1999.90;999.90;;;;;;;;;;6276935;22;20082;-82
2023/06/09 07:21:11;;;;;;;1999.90;999.90;;;;;;;;;;6304504;22;20019;-82
2023/06/09 07:23:37;;;;;;;1999.90;999.90;;;;;;;;;;6304243;22;20011;-83
2023/06/09 07:26:03;;;;;;;1999.90;999.90;;;;;;;;;;6304381;22;20441;-85
2023/06/09 07:28:32;;;;;;;1999.90;999.90;;;;;;;;;;6276691;22;20023;-84
2023/06/09 07:30:58;;;;;;;1999.90;999.90;;;;;;;;;;6303641;22;20086;-83
2023/06/09 07:33:24;;;;;;;1999.90;999.90;;;;;;;;;;6304131;22;20015;-84
2023/06/09 07:35:52;;;;;;;1999.90;999.90;;;;;;;;;;6304219;22;20011;-84
2023/06/09 07:38:20;;;;;;;1999.90;999.90;;;;;;;;;;6276336;22;20557;-84
2023/06/09 07:40:46;;;;;;;1999.90;999.90;;;;;;;;;;6304109;22;20015;-84
2023/06/09 07:43:12;;;;;;;1999.90;999.90;;;;;;;;;;6250525;22;20038;-83
2023/06/09 07:45:38;;;;;;;1999.90;999.90;;;;;;;;;;6303590;22;20007;-84
2023/06/09 07:48:05;;;;;;;1999.90;999.90;;;;;;;;;;6276336;22;20403;-84
2023/06/09 07:50:31;;;;;;;1999.90;999.90;;;;;;;;;;6277420;22;20015;-84
2023/06/09 07:52:58;;;;;;;1999.90;999.90;;;;;;;;;;6278278;22;20007;-84
2023/06/09 07:55:25;;;;;;;1999.90;999.90;;;;;;;;;;6277990;22;20082;-84
2023/06/09 07:57:51;;;;;;;1999.90;999.90;;;;;;;;;;6278086;22;20318;-84
2023/06/09 08:00:18;;;;;;;1999.90;999.90;;;;;;;;;;6278031;22;20012;-84
2023/06/09 08:02:45;;;;;;;1999.90;999.90;;;;;;;;;;6305787;22;20042;-82
2023/06/09 08:05:11;;;;;;;1999.90;999.90;;;;;;;;;;6278531;22;20012;-81
2023/06/09 08:07:37;;;;;;;1999.90;999.90;;;;;;;;;;6278778;22;20092;-82
2023/06/09 08:10:04;;;;;;;1999.90;999.90;;;;;;;;;;6278474;22;20034;-82
2023/06/09 08:12:30;;;;;;;1999.90;999.90;;;;;;;;;;6305887;22;20015;-83
2023/06/09 08:14:55;;;;;;;1999.90;999.90;;;;;;;;;;6305533;22;20022;-82
2023/06/09 08:17:22;;;;;;;1999.90;999.90;;;;;;;;;;6305850;22;20086;-82
2023/06/09 08:19:48;;;;;;;1999.90;999.90;;;;;;;;;;6278398;22;20050;-82
2023/06/09 08:22:14;;;;;;;1999.90;999.90;;;;;;;;;;6278858;22;20011;-81
2023/06/09 08:24:40;;;;;;;1999.90;999.90;;;;;;;;;;6278698;22;20076;-82
2023/06/09 08:27:07;;;;;;;1999.90;999.90;;;;;;;;;;6281085;22;20076;-80
2023/06/09 08:29:33;;;;;;;1999.90;999.90;;;;;;;;;;6280367;22;20469;-82
2023/06/09 08:32:00;;;;;;;1999.90;999.90;;;;;;;;;;6308910;22;20330;-80
2023/06/09 08:34:26;;;;;;;1999.90;999.90;;;;;;;;;;6281252;22;20018;-81
2023/06/09 08:36:52;;;;;;;1999.90;999.90;;;;;;;;;;6280937;22;20061;-80
2023/06/09 08:39:18;;;;;;;1999.90;999.90;;;;;;;;;;6255081;22;20442;-81
2023/06/09 08:41:48;;;;;;;1999.90;999.90;;;;;;;;;;6308117;22;20015;-82
2023/06/09 08:44:15;;;;;;;1999.90;999.90;;;;;;;;;;6280659;22;20014;-84
2023/06/09 08:46:42;;;;;;;1999.90;999.90;;;;;;;;;;6281385;22;20085;-85
2023/06/09 08:49:08;;;;;;;1999.90;999.90;;;;;;;;;;6308978;22;20011;-83
2023/06/09 08:51:37;;;;;;;1999.90;999.90;;;;;;;;;;6281864;22;20074;-84
2023/06/09 08:54:03;;;;;;;1999.90;999.90;;;;;;;;;;6279870;22;20015;-84
2023/06/09 08:56:29;;;;;;;1999.90;999.90;;;;;;;;;;6255572;22;20026;-84
2023/06/09 08:58:56;;;;;;;1999.90;999.90;;;;;;;;;;6309624;22;20368;-85
2023/06/09 09:01:22;;;;;;;1999.90;999.90;;;;;;;;;;6256619;22;20014;-84
2023/06/09 09:03:48;;;;;;;1999.90;999.90;;;;;;;;;;6307842;22;20123;-83
2023/06/09 09:06:15;;;;;;;1999.90;999.90;;;;;;;;;;6306654;22;20334;-81
2023/06/09 09:08:43;;;;;;;1999.90;999.90;;;;;;;;;;6279896;22;20015;-82
2023/06/09 09:11:09;;;;;;;1999.90;999.90;;;;;;;;;;6279392;22;20018;-83
2023/06/09 09:13:35;;;;;;;1999.90;999.90;;;;;;;;;;6279598;22;20015;-82
2023/06/09 09:16:02;;;;;;;1999.90;999.90;;;;;;;;;;6279798;22;20015;-83
2023/06/09 09:18:31;;;;;;;1999.90;999.90;;;;;;;;;;6308452;22;20026;-83
2023/06/09 09:20:58;;;;;;;1999.90;999.90;;;;;;;;;;6282706;22;20086;-83
2023/06/09 09:23:31;;;;;;;1999.90;999.90;;;;;;;;;;6283602;22;20034;-83
2023/06/09 09:26:00;;;;;;;1999.90;999.90;;;;;;;;;;6284251;22;20011;-83
2023/06/09 09:28:26;;;;;;;1999.90;999.90;;;;;;;;;;6282555;22;20022;-84
2023/06/09 09:30:57;;;;;;;1999.90;999.90;;;;;;;;;;6281564;22;20019;-84
2023/06/09 09:33:23;;;;;;;1999.90;999.90;;;;;;;;;;6281777;22;20022;-83
2023/06/09 09:35:56;;;;;;;1999.90;999.90;;;;;;;;;;6282066;22;20011;-83
2023/06/09 09:38:24;;;;;;;1999.90;999.90;;;;;;;;;;6280952;22;20011;-83
2023/06/09 09:40:51;;;;;;;1999.90;999.90;;;;;;;;;;6280153;22;20090;-84
2023/06/09 09:43:17;;;;;;;1999.90;999.90;;;;;;;;;;6308516;22;20008;-84
2023/06/09 09:45:44;;;;;;;1999.90;999.90;;;;;;;;;;6308591;22;20011;-84
2023/06/09 09:48:12;;;;;;;1999.90;999.90;;;;;;;;;;6309316;22;20019;-83
2023/06/09 09:50:38;;;;;;;1999.90;999.90;;;;;;;;;;6256370;22;20022;-83
2023/06/09 09:53:05;;;;;;;1999.90;999.90;;;;;;;;;;6281779;22;20038;-83
2023/06/09 09:55:32;;;;;;;1999.90;999.90;;;;;;;;;;6280933;22;20019;-84
2023/06/09 09:57:59;;;;;;;1999.90;999.90;;;;;;;;;;6282482;22;20016;-83
2023/06/09 10:00:26;;;;;;;1999.90;999.90;;;;;;;;;;6282264;22;20063;-84
2023/06/09 10:02:54;;;;;;;1999.90;999.90;;;;;;;;;;6310182;22;20011;-83
2023/06/09 10:05:21;;;;;;;1999.90;999.90;;;;;;;;;;6309662;22;20015;-84
2023/06/09 10:07:51;;;;;;;1999.90;999.90;;;;;;;;;;6281841;22;20026;-83
2023/06/09 10:10:18;;;;;;;1999.90;999.90;;;;;;;;;;6310265;22;20065;-83
2023/06/09 10:12:45;;;;;;;1999.90;999.90;;;;;;;;;;6311005;22;20099;-83
2023/06/09 10:15:12;;;;;;;1999.90;999.90;;;;;;;;;;6282933;22;20516;-84
2023/06/09 10:17:38;;;;;;;1999.90;999.90;;;;;;;;;;6282427;22;20075;-84
2023/06/09 10:20:08;;;;;;;1999.90;999.90;;;;;;;;;;6281343;22;20011;-84
2023/06/09 10:22:34;;;;;;;1999.90;999.90;;;;;;;;;;6256097;22;20007;-83
2023/06/09 10:25:01;;;;;;;1999.90;999.90;;;;;;;;;;6282389;22;20023;-83
2023/06/09 10:27:27;;;;;;;1999.90;999.90;;;;;;;;;;6282771;22;20011;-85
2023/06/09 10:29:53;;;;;;;1999.90;999.90;;;;;;;;;;6282019;22;20449;-84
2023/06/09 10:32:22;;;;;;;1999.90;999.90;;;;;;;;;;6257691;22;20049;-84
2023/06/09 10:34:49;;;;;;;1999.90;999.90;;;;;;;;;;6282879;22;20111;-83
2023/06/09 10:37:26;;;;;;;1999.90;999.90;;;;;;;;;;6310076;22;20046;-84
2023/06/09 10:39:56;;;;;;;1999.90;999.90;;;;;;;;;;6256493;22;20011;-83
2023/06/09 10:42:43;;;;;;;1999.90;999.90;;;;;;;;;;6309608;22;20144;-84
2023/06/09 10:45:12;;;;;;;1999.90;999.90;;;;;;;;;;6282721;22;20046;-84
2023/06/09 10:47:45;;;;;;;1999.90;999.90;;;;;;;;;;6257514;22;20019;-84
2023/06/09 10:50:22;;;;;;;1999.90;999.90;;;;;;;;;;6311599;22;20022;-84
2023/06/09 10:52:56;;;;;;;1999.90;999.90;;;;;;;;;;6251898;22;20046;-85
2023/06/09 10:55:23;;;;;;;1999.90;999.90;;;;;;;;;;6251093;22;20019;-85
2023/06/09 10:57:50;;;;;;;1999.90;999.90;;;;;;;;;;6251973;22;20084;-85
2023/06/09 11:00:16;;;;;;;1999.90;999.90;;;;;;;;;;6277472;22;20012;-85
2023/06/09 11:02:44;;;;;;;1999.90;999.90;;;;;;;;;;6277436;22;20022;-85
2023/06/09 11:05:11;;;;;;;1999.90;999.90;;;;;;;;;;6304616;22;20016;-85
2023/06/09 11:07:44;;;;;;;1999.90;999.90;;;;;;;;;;6276712;22;20022;-84
2023/06/09 11:10:11;;;;;;;1999.90;999.90;;;;;;;;;;6277216;22;20197;-85
2023/06/09 11:12:37;;;;;;;1999.90;999.90;;;;;;;;;;6304874;22;20045;-85
2023/06/09 11:15:04;;;;;;;1999.90;999.90;;;;;;;;;;6277434;22;20015;-85
2023/06/09 11:17:34;;;;;;;1999.90;999.90;;;;;;;;;;6277078;22;20465;-85
2023/06/09 11:20:06;;;;;;;1999.90;999.90;;;;;;;;;;6277486;22;20065;-86
2023/06/09 11:22:32;;;;;;;;;;;;;;;;;;6277683;22;20333;-85
2023/06/09 11:24:58;;;;;;;1999.90;999.90;;;;;;;;;;6278307;22;19946;-85
2023/06/09 11:27:25;;;;;;;1999.90;999.90;;;;;;;;;;6279271;22;20015;-85
2023/06/09 11:30:07;;;;;;;1999.90;999.90;;;;;;;;;;6253760;22;20015;-85
2023/06/09 11:32:46;;;;;;;1999.90;999.90;;;;;;;;;;6279569;22;20493;-85
2023/06/09 11:35:31;;;;;;;1999.90;999.90;;;;;;;;;;6279844;22;20008;-84
2023/06/09 11:37:59;;;;;;;1999.90;999.90;;;;;;;;;;6278718;22;20111;-85
2023/06/09 11:40:26;;;;;;;1999.90;999.90;;;;;;;;;;6279028;22;20442;-85
2023/06/09 11:42:52;;;;;;;1999.90;897.10;;;;;;;;;;6279181;22;20042;-86
2023/06/09 11:45:18;;;;;;;1999.90;999.90;;;;;;;;;;6278845;22;20011;-85
2023/06/09 11:47:46;;;;;;;1948.43;885.97;;;;;;;;;;6306432;22;20073;-85
2023/06/09 11:50:13;;;;;;;1999.90;999.90;;;;;;;;;;6278574;22;20018;-85
2023/06/09 11:52:40;;;;;;;1999.90;999.90;;;;;;;;;;6306061;22;20414;-85
2023/06/09 11:55:06;;;;;;;1999.90;999.90;;;;;;;;;;6278370;22;20446;-85
2023/06/09 11:57:33;;;;;;;1999.90;999.90;;;;;;;;;;6306251;22;20015;-85
2023/06/09 11:59:59;;;;;;;1999.90;999.90;;;;;;;;;;6253057;22;20015;-86
2023/06/09 12:02:27;;;;;;;1999.90;999.90;;;;;;;;;;6253143;22;20007;-86
2023/06/09 12:04:53;;;;;;;1999.90;999.90;;;;;;;;;;6306280;22;20127;-86
2023/06/09 12:07:19;;;;;;;1999.90;999.90;;;;;;;;;;6305823;22;20011;-86
2023/06/09 12:09:45;;;;;;;1999.90;999.90;;;;;;;;;;6305854;22;20442;-85
2023/06/09 12:12:11;;;;;;;1999.90;999.90;;;;;;;;;;6252927;22;20011;-84
2023/06/09 12:14:38;;;;;;;1999.90;999.90;;;;;;;;;;6278927;22;20011;-85
2023/06/09 12:17:05;;;;;;;1999.90;999.90;;;;;;;;;;6278301;22;20011;-85
2023/06/09 12:19:31;;;;;;;1999.90;999.90;;;;;;;;;;6278816;22;20156;-86
2023/06/09 12:21:57;;;;;;;1999.90;999.90;;;;;;;;;;6278402;22;20018;-86
2023/06/09 12:24:26;;;;;;;1999.90;999.90;;;;;;;;;;6306181;22;20086;-86
2023/06/09 12:26:52;;;;;;;1999.90;999.90;;;;;;;;;;6278131;22;20011;-86
2023/06/09 12:29:24;;;;;;;1999.90;999.90;;;;;;;;;;6278514;22;20022;-85
2023/06/09 12:31:51;;;;;;;1999.90;999.90;;;;;;;;;;6278443;22;20030;-86
2023/06/09 12:34:24;;;;;;;1999.90;999.90;;;;;;;;;;6305707;22;20063;-85
2023/06/09 12:36:50;;;;;;;1999.90;999.90;;;;;;;;;;6252586;22;20524;-85
2023/06/09 12:39:20;;;;;;;1999.90;999.90;;;;;;;;;;6278073;22;20038;-86
2023/06/09 12:41:46;;;;;;;1999.90;999.90;;;;;;;;;;6278650;22;20015;-86
2023/06/09 12:44:19;;;;;;;1999.90;999.90;;;;;;;;;;6278201;22;20022;-86
2023/06/09 12:46:45;;;;;;;1999.90;999.90;;;;;;;;;;6252857;22;20007;-87
2023/06/09 12:49:12;;;;;;;1999.90;999.90;;;;;;;;;;6278169;22;20102;-86
2023/06/09 12:51:40;;;;;;;1999.90;999.90;;;;;;;;;;6252872;22;20458;-85
2023/06/09 12:54:06;;;;;;;1999.90;999.90;;;;;;;;;;6277780;22;20524;-86
2023/06/09 12:56:32;;;;;;;1999.90;999.90;;;;;;;;;;6278075;22;20016;-86
2023/06/09 12:58:58;;;;;;;1999.90;999.90;;;;;;;;;;6252710;22;20018;-85
2023/06/09 13:01:26;;;;;;;1999.90;999.90;;;;;;;;;;6278521;22;20007;-89
2023/06/09 13:03:52;;;;;;;1999.90;999.90;;;;;;;;;;6251876;22;20011;-86
2023/06/09 13:06:18;;;;;;;1999.90;999.90;;;;;;;;;;6278720;22;20018;-86
2023/06/09 13:08:44;;;;;;;1999.90;999.90;;;;;;;;;;6278183;22;20016;-86
2023/06/09 13:11:11;;;;;;;1999.90;999.90;;;;;;;;;;6252401;22;20015;-86
2023/06/09 13:13:37;;;;;;;1999.90;999.90;;;;;;;;;;6277934;22;20117;-85
2023/06/09 13:16:03;;;;;;;1999.90;999.90;;;;;;;;;;6252230;22;20008;-86
2023/06/09 13:18:29;;;;;;;1999.90;999.90;;;;;;;;;;6277214;22;20022;-85
2023/06/09 13:20:55;;;;;;;1999.90;999.90;;;;;;;;;;6305603;22;20334;-86
2023/06/09 13:23:21;;;;;;;1999.90;999.90;;;;;;;;;;6277942;22;20011;-86
2023/06/09 13:25:47;;;;;;;1999.90;999.90;;;;;;;;;;6252060;22;20011;-85
2023/06/09 13:28:15;;;;;;;1999.90;999.90;;;;;;;;;;6252249;22;20148;-85
2023/06/09 13:30:41;;;;;;;1999.90;999.90;;;;;;;;;;6277652;22;20015;-86
2023/06/09 13:33:08;;;;;;;1999.90;999.90;;;;;;;;;;6251570;22;20007;-86
2023/06/09 13:35:34;;;;;;;1999.90;999.90;;;;;;;;;;6277700;22;20089;-86
2023/06/09 13:38:03;;;;;;;1999.90;999.90;;;;;;;;;;6305511;22;20047;-85
2023/06/09 13:40:30;;;;;;;1758.28;677.17;;;;;;;;;;6252289;22;20014;-86
2023/06/09 13:42:56;;;;;;;1999.90;999.90;;;;;;;;;;6277530;22;20014;-86
2023/06/09 13:45:25;;;;;;;1999.90;999.90;;;;;;;;;;6252554;22;20019;-85
2023/06/09 13:47:52;;;;;;;1999.90;999.90;;;;;;;;;;6277392;22;20450;-86
2023/06/09 13:50:18;;;;;;;1999.90;999.90;;;;;;;;;;6253458;22;20015;-86
2023/06/09 13:52:44;;;;;;;1999.90;999.90;;;;;;;;;;6253872;22;20015;-85
2023/06/09 13:55:11;;;;;;;1999.90;999.90;;;;;;;;;;6304817;22;20030;-86
2023/06/09 13:57:37;;;;;;;1999.90;999.90;;;;;;;;;;6251964;22;20019;-85